Impacts METAR Board
IDs:

KPIT - Pittsburgh Intl, PA, US

Updated at: 0100 UTC 31 May 2020
Potential Impact None Slight Moderate High
Time 30/13Z 30/14Z 30/15Z 30/16Z 30/17Z 30/18Z 30/19Z 30/20Z 30/21Z 30/22Z 30/23Z 31/00Z 31/01Z
Temp55 60 60 64 67 69 67 69 69 68 67 65 62
Dewpt55 54 56 57 53 54 50 51 48 47 46 46 43
Altim30.07 30.07 30.06 30.05 30.04 30.04 30.03 30.04 30.05 30.05 30.06 30.08 30.09
VIS10 10 10 10 10 10 10 10 10 10 10 10 10
CIG-- 26 27 -- 38 50 60 -- -- 70 -- -- --
CoverSCTBKNOVCSCTBKNBKNBKNSCTSCTBKNSCTFEWFEW
FltCatVFRMVFRMVFRVFRVFRVFRVFRVFRVFRVFRVFRVFRVFR
WX--------------------------
WDir0250250240260290280320310320340330330
WSpd0 5 3 10 9 13 13 15 16 12 12 11 8
WGst-- -- -- -- -- -- -- -- -- -- -- -- --
Raw hourly METARs
KPIT 301251Z 00000KT 10SM FEW003 SCT050 SCT250 13/13 A3007 RMK AO2 SLP186 T01280128 $
KPIT 301351Z 25005KT 10SM FEW006 BKN026 BKN045 16/12 A3007 RMK AO2 SLP186 T01560122 $
KPIT 301451Z 25003KT 10SM FEW009 BKN027 OVC043 16/13 A3006 RMK AO2 RAB18E49 SLP182 P0000 60000 T01560133 58001 $
KPIT 301551Z 24010KT 10SM FEW014 SCT028 SCT046 18/14 A3005 RMK AO2 SLP180 T01780139 $
KPIT 301651Z 26009KT 240V310 10SM FEW026 BKN038 BKN048 19/12 A3004 RMK AO2 SLP177 T01940117 $
KPIT 301751Z 29013KT 10SM SCT034 BKN050 21/12 A3004 RMK AO2 SLP175 60000 T02060122 10206 20111 56006 $
KPIT 301851Z 28013KT 10SM SCT040 BKN060 19/10 A3003 RMK AO2 SLP173 T01940100 $
KPIT 301951Z 32015KT 10SM FEW044 SCT070 21/11 A3004 RMK AO2 SLP176 T02060106 $
KPIT 302051Z 31016KT 10SM SCT048 SCT075 21/09 A3005 RMK AO2 SLP179 T02060089 53002 $
KPIT 302151Z 32012KT 10SM SCT049 BKN070 20/08 A3005 RMK AO2 SLP183 T02000083 $
KPIT 302251Z 34012KT 10SM FEW055 SCT075 19/08 A3006 RMK AO2 SLP185 T01940078 $
KPIT 302351Z 33011KT 10SM FEW050 FEW070 18/08 A3008 RMK AO2 SLP192 T01830078 10211 20183 53012 $
KPIT 310051Z 33008KT 10SM FEW065 17/06 A3009 RMK AO2 SLP196 T01670061 $



Page loaded:  01:45 UTC  |   06:45 PM Pacific  |   07:45 PM Mountain  |   08:45 PM Central  |   09:45 PM Eastern

 

ADVISORIES

FORECASTS

FORECASTS

OBSERVATIONS

USER TOOLS

ABOUT US